Time;durP1;ratioP1;P1;durP2;ratioP2;P2;SDS_P1;SDS_P2;PMS_P1;PMS_P2;Temp;Humidity;BMP_temperature;BMP_pressure;BME280_temperature;BME280_humidity;BME280_pressure;Samples;Min_cycle;Max_cycle;Signal;HPM_P1;HPM_P2
2022/10/11 00:01:48;;;;;;;3.78;2.00;;;;;;;19.55;47.63;99624.66;5056922;28;20557;-87
2022/10/11 00:04:14;;;;;;;3.50;2.00;;;;;;;19.58;47.59;99628.81;5057277;28;20112;-89
2022/10/11 00:06:42;;;;;;;5.30;1.80;;;;;;;19.58;47.66;99623.50;5075022;28;20027;-89
2022/10/11 00:09:07;;;;;;;3.70;1.80;;;;;;;19.49;47.64;99606.72;5073781;28;20139;-87
2022/10/11 00:11:33;;;;;;;3.75;2.25;;;;;;;19.55;47.74;99621.19;5039616;28;20032;-87
2022/10/11 00:13:58;;;;;;;4.50;2.03;;;;;;;19.48;47.72;99612.97;5056956;28;20435;-87
2022/10/11 00:16:24;;;;;;;4.70;1.88;;;;;;;19.46;47.66;99615.78;5074499;28;20078;-90
2022/10/11 00:18:50;;;;;;;4.20;1.90;;;;;;;19.49;47.88;99620.78;5057139;28;20507;-91
2022/10/11 00:21:15;;;;;;;2.90;1.65;;;;;;;19.46;47.61;99618.44;5074701;28;20033;-90
2022/10/11 00:23:41;;;;;;;4.22;1.90;;;;;;;19.45;47.92;99618.59;5073873;28;20475;-91
2022/10/11 00:26:08;;;;;;;4.68;1.83;;;;;;;19.44;47.81;99619.59;5056703;28;20032;-86
2022/10/11 00:28:33;;;;;;;3.85;1.80;;;;;;;19.44;47.86;99619.59;5074549;28;20032;-90
2022/10/11 00:30:59;;;;;;;4.55;1.90;;;;;;;19.43;48.01;99615.28;5057193;28;20111;-91
2022/10/11 00:33:24;;;;;;;7.75;1.88;;;;;;;19.43;47.98;99617.91;5074308;28;20419;-90
2022/10/11 00:35:50;;;;;;;6.40;2.00;;;;;;;19.42;47.82;99616.25;5073207;28;20025;-90
2022/10/11 00:38:15;;;;;;;3.53;1.80;;;;;;;19.43;48.11;99616.09;5040150;28;20029;-92
2022/10/11 00:40:41;;;;;;;5.40;1.80;;;;;;;19.40;48.03;99611.09;5073357;28;20036;-91
2022/10/11 00:43:17;;;;;;;2.50;1.60;;;;;;;19.39;47.93;99611.25;5056568;28;20094;-89
2022/10/11 00:45:55;;;;;;;6.13;2.20;;;;;;;19.44;48.15;99612.47;5057224;28;20475;-91
2022/10/11 00:48:26;;;;;;;2.83;1.67;;;;;;;19.39;47.93;99590.06;5074761;28;20476;-91
2022/10/11 00:50:52;;;;;;;4.07;1.70;;;;;;;19.38;47.72;99594.53;5073301;28;20480;-90
2022/10/11 00:53:17;;;;;;;4.55;1.80;;;;;;;19.41;47.90;99591.59;5057224;28;20032;-91
2022/10/11 00:55:52;;;;;;;3.90;1.60;;;;;;;19.43;48.04;99599.38;5039959;28;20032;-91
2022/10/11 00:58:17;;;;;;;3.92;1.90;;;;;;;19.45;47.97;99600.06;5057509;28;20428;-90
2022/10/11 01:00:43;;;;;;;5.07;1.85;;;;;;;19.43;47.88;99602.84;5074000;28;20032;-91
2022/10/11 01:03:08;;;;;;;3.55;1.80;;;;;;;19.42;47.84;99592.41;5057388;28;20086;-91
2022/10/11 01:05:35;;;;;;;3.55;2.10;;;;;;;19.44;47.74;99601.06;5056473;28;20043;-92
2022/10/11 01:08:00;;;;;;;3.38;1.80;;;;;;;19.44;47.96;99601.06;5056633;28;20028;-91
2022/10/11 01:10:26;;;;;;;3.58;1.67;;;;;;;19.44;47.82;99601.06;5056526;28;20027;-91
2022/10/11 01:13:16;;;;;;;5.40;1.90;;;;;;;19.45;47.86;99597.41;5056834;28;20052;-92
2022/10/11 01:16:13;;;;;;;4.00;1.73;;;;;;;19.44;47.92;99596.59;5073841;28;20029;-91
2022/10/11 01:18:48;;;;;;;4.33;1.70;;;;;;;19.45;47.79;99587.66;5042479;28;20048;-92
2022/10/11 01:21:29;;;;;;;3.97;1.63;;;;;;;19.45;47.74;99592.97;5073145;28;20419;-91
2022/10/11 01:24:39;;;;;;;5.00;2.10;;;;;;;19.44;47.87;99580.69;5072898;28;20113;-92
2022/10/11 01:27:24;;;;;;;4.28;1.65;;;;;;;19.45;47.88;99581.53;5051767;28;20040;-91
2022/10/11 01:30:14;;;;;;;3.63;1.70;;;;;;;19.45;47.88;99581.53;5052529;28;20029;-92
2022/10/11 01:32:48;;;;;;;5.50;1.80;;;;;;;19.44;47.96;99579.88;5051558;28;20060;-91
2022/10/11 01:35:25;;;;;;;6.95;1.80;;;;;;;19.44;48.22;99580.69;5036586;28;20171;-89
2022/10/11 01:38:20;;;;;;;4.05;1.60;;;;;;;19.44;47.84;99572.75;5067479;28;20056;-89
2022/10/11 01:41:08;;;;;;;3.42;1.80;;;;;;;19.44;47.78;99575.41;4991535;28;20061;-89
2022/10/11 01:43:34;;;;;;;5.45;1.75;;;;;;;19.40;47.77;99565.28;5008758;28;20049;-90
2022/10/11 01:46:00;;;;;;;3.10;1.48;;;;;;;19.40;47.88;99562.63;4997038;28;20046;-90
2022/10/11 01:48:25;;;;;;;3.03;1.70;;;;;;;19.43;47.85;99560.50;4991941;28;20041;-90
2022/10/11 01:50:52;;;;;;;4.28;1.80;;;;;;;19.40;47.81;99554.69;4991851;28;20042;-75
2022/10/11 01:53:33;;;;;;;2.75;1.80;;;;;;;19.44;47.99;99564.00;4974411;28;20465;-76
2022/10/11 01:56:04;;;;;;;3.45;1.75;;;;;;;19.39;47.79;99553.00;4991414;28;20030;-76
2022/10/11 01:58:52;;;;;;;3.13;1.77;;;;;;;19.38;47.78;99554.84;4991128;28;20042;-76
2022/10/11 02:01:24;;;;;;;;;;;;;;;19.42;47.74;99558.00;4975610;28;20564;-76
2022/10/11 02:04:15;;;;;;;3.13;1.80;;;;;;;19.37;47.95;99558.50;4991278;28;19909;-76
2022/10/11 02:06:46;;;;;;;4.53;2.05;;;;;;;19.38;47.83;99552.19;4974733;28;20034;-76
2022/10/11 02:09:21;;;;;;;3.03;1.55;;;;;;;19.38;47.78;99556.66;4991075;28;20044;-76
2022/10/11 02:11:46;;;;;;;2.97;1.45;;;;;;;19.37;47.86;99544.41;4975713;28;20046;-76
2022/10/11 02:14:17;;;;;;;4.07;1.73;;;;;;;19.39;47.64;99553.00;4974551;28;20505;-76
2022/10/11 02:16:54;;;;;;;5.55;2.00;;;;;;;19.37;47.71;99545.25;4968527;28;20038;-76
2022/10/11 02:19:22;;;;;;;6.18;1.80;;;;;;;19.31;47.69;99537.91;5070733;28;20036;-76
2022/10/11 02:21:51;;;;;;;4.47;2.00;;;;;;;19.30;47.76;99542.38;5037906;28;20102;-76
2022/10/11 02:24:35;;;;;;;2.75;1.75;;;;;;;19.35;47.79;99549.84;5054811;28;20111;-76
2022/10/11 02:27:02;;;;;;;2.78;1.52;;;;;;;19.32;47.80;99550.16;5054457;28;20507;-76
2022/10/11 02:29:28;;;;;;;3.15;1.60;;;;;;;19.33;47.66;99552.66;5037652;28;20028;-76
2022/10/11 02:31:54;;;;;;;3.50;1.52;;;;;;;19.32;47.75;99550.16;5037447;28;20044;-76
2022/10/11 02:34:22;;;;;;;3.33;1.95;;;;;;;19.32;47.64;99550.16;5054648;28;20085;-76
2022/10/11 02:36:53;;;;;;;5.78;1.80;;;;;;;19.33;47.70;99549.19;5037543;28;20075;-75
2022/10/11 02:39:39;;;;;;;3.63;1.63;;;;;;;19.32;47.66;99545.72;5071752;28;20032;-76
2022/10/11 02:42:07;;;;;;;2.95;1.75;;;;;;;19.31;47.61;99537.91;5056773;28;20119;-78
2022/10/11 02:44:36;;;;;;;4.05;2.00;;;;;;;19.32;47.67;99539.56;5037511;28;20512;-78
2022/10/11 02:47:02;;;;;;;4.88;1.50;;;;;;;19.30;47.77;99534.41;5054252;28;20033;-77
2022/10/11 02:49:28;;;;;;;3.17;1.80;;;;;;;19.31;47.66;99528.16;5053914;28;20044;-77
2022/10/11 02:51:57;;;;;;;5.45;1.80;;;;;;;19.34;47.85;99540.25;5037485;28;20127;-78
2022/10/11 02:54:23;;;;;;;4.47;1.77;;;;;;;19.31;47.65;99533.44;5054297;28;20037;-76
2022/10/11 02:56:49;;;;;;;3.92;1.95;;;;;;;19.30;47.67;99526.47;5070644;28;20102;-76
2022/10/11 02:59:14;;;;;;;3.25;1.73;;;;;;;19.32;47.65;99524.53;5054181;28;20483;-76
2022/10/11 03:01:40;;;;;;;3.70;1.88;;;;;;;19.30;47.67;99523.84;5053789;28;20067;-76
2022/10/11 03:04:05;;;;;;;3.75;1.85;;;;;;;19.34;47.64;99519.09;5070891;28;20403;-78
2022/10/11 03:06:31;;;;;;;5.25;1.70;;;;;;;19.35;47.56;99526.03;5070703;28;20032;-77
2022/10/11 03:08:56;;;;;;;4.10;1.90;;;;;;;19.33;47.74;99525.34;5053885;28;20055;-77
2022/10/11 03:11:22;;;;;;;2.60;1.45;;;;;;;19.34;47.87;99527.84;5070940;28;20502;-77
2022/10/11 03:13:47;;;;;;;6.13;1.90;;;;;;;19.34;47.59;99527.03;5070942;28;20028;-76
2022/10/11 03:16:13;;;;;;;3.47;1.70;;;;;;;19.34;47.67;99529.66;5070817;28;20365;-77
2022/10/11 03:18:38;;;;;;;3.53;1.80;;;;;;;19.28;47.77;99514.41;5070595;28;20396;-77
2022/10/11 03:21:04;;;;;;;5.25;1.92;;;;;;;19.33;47.74;99523.53;5070662;28;20040;-77
2022/10/11 03:23:29;;;;;;;3.78;1.70;;;;;;;19.29;47.62;99516.91;5071863;28;20100;-77
2022/10/11 03:25:54;;;;;;;7.80;1.80;;;;;;;19.28;47.66;99509.94;5053156;28;20098;-79
2022/10/11 03:28:20;;;;;;;5.22;1.63;;;;;;;19.32;47.61;99524.53;5036899;28;20365;-76
2022/10/11 03:30:47;;;;;;;2.78;1.67;;;;;;;19.32;47.61;99529.81;5055859;28;20058;-76
2022/10/11 03:33:12;;;;;;;3.35;1.70;;;;;;;19.33;47.58;99520.06;5041001;28;20060;-76
2022/10/11 03:35:39;;;;;;;4.43;1.80;;;;;;;19.31;47.72;99524.69;5074708;28;20028;-88
2022/10/11 03:38:05;;;;;;;3.30;1.70;;;;;;;19.29;47.61;99522.19;5042993;28;20110;-84
2022/10/11 03:40:30;;;;;;;4.45;2.20;;;;;;;19.28;47.55;99522.34;5075492;28;20429;-90
2022/10/11 03:42:56;;;;;;;4.85;1.83;;;;;;;19.31;47.53;99522.84;5058676;28;20042;-85
2022/10/11 03:45:23;;;;;;;3.72;1.70;;;;;;;19.28;47.86;99517.06;5058685;28;20032;-81
2022/10/11 03:47:48;;;;;;;3.13;2.00;;;;;;;19.39;49.46;99515.94;5074356;28;20047;-79
2022/10/11 03:50:14;;;;;;;3.78;2.08;;;;;;;19.28;49.00;99520.53;5057084;28;20104;-81
2022/10/11 03:52:39;;;;;;;3.05;2.08;;;;;;;19.19;49.29;99517.97;5073664;28;20036;-79
2022/10/11 03:55:06;;;;;;;2.75;2.00;;;;;;;19.15;50.15;99522.75;5074748;28;20471;-72
2022/10/11 03:57:31;;;;;;;5.22;2.10;;;;;;;19.02;50.17;99509.06;5075072;28;20028;-76
2022/10/11 03:59:57;;;;;;;3.42;2.15;;;;;;;18.97;50.11;99514.81;5073647;28;20032;-70
2022/10/11 04:02:22;;;;;;;5.55;2.00;;;;;;;18.83;50.20;99502.91;5073487;28;20039;-70
2022/10/11 04:04:48;;;;;;;5.63;2.40;;;;;;;18.77;50.34;99509.66;5040247;28;20033;-70
2022/10/11 04:07:13;;;;;;;5.47;2.17;;;;;;;18.76;50.41;99512.44;5073484;28;20454;-70
2022/10/11 04:09:39;;;;;;;3.97;2.35;;;;;;;18.70;50.52;99515.69;5074527;28;20126;-69
2022/10/11 04:12:05;;;;;;;5.88;2.42;;;;;;;18.62;50.49;99511.16;5056319;28;20076;-70
2022/10/11 04:14:30;;;;;;;4.60;2.10;;;;;;;18.55;50.92;99510.06;5056570;28;20163;-70
2022/10/11 04:16:55;;;;;;;6.10;2.45;;;;;;;18.56;50.81;99517.84;5073049;28;20025;-71
2022/10/11 04:19:21;;;;;;;5.82;2.42;;;;;;;18.50;51.04;99515.81;5073222;28;20028;-71
2022/10/11 04:21:46;;;;;;;7.00;2.33;;;;;;;18.44;50.98;99513.78;5037502;28;20111;-73
2022/10/11 04:24:12;;;;;;;4.97;1.83;;;;;;;18.44;51.18;99522.53;5071367;28;20032;-70
2022/10/11 04:26:37;;;;;;;6.53;2.15;;;;;;;18.41;51.27;99520.19;5054739;28;20110;-70
2022/10/11 04:29:04;;;;;;;7.72;2.35;;;;;;;18.40;51.27;99521.16;5053642;28;20103;-69
2022/10/11 04:31:30;;;;;;;5.45;2.40;;;;;;;18.39;51.29;99516.00;5056154;28;20050;-70
2022/10/11 04:33:56;;;;;;;6.18;2.50;;;;;;;18.37;51.32;99518.81;5039682;28;20492;-70
2022/10/11 04:36:22;;;;;;;8.73;2.53;;;;;;;18.35;51.39;99517.31;5056376;28;20089;-70
2022/10/11 04:38:47;;;;;;;5.80;2.45;;;;;;;18.36;51.49;99518.94;5056061;28;20483;-73
2022/10/11 04:41:13;;;;;;;6.03;2.50;;;;;;;18.36;51.51;99519.81;5055590;28;20043;-71
2022/10/11 04:43:39;;;;;;;5.75;2.72;;;;;;;18.37;51.45;99521.44;5056138;28;20059;-70
2022/10/11 04:46:04;;;;;;;4.88;2.55;;;;;;;18.31;51.37;99511.50;5056177;28;20025;-70
2022/10/11 04:48:30;;;;;;;4.47;2.10;;;;;;;18.36;51.51;99514.53;5056002;28;20506;-70
2022/10/11 04:50:55;;;;;;;5.80;2.30;;;;;;;18.38;51.54;99517.00;5055876;28;20415;-72
2022/10/11 04:53:21;;;;;;;6.93;2.65;;;;;;;18.37;51.59;99507.41;5039534;28;20044;-70
2022/10/11 04:56:04;;;;;;;7.18;2.63;;;;;;;18.34;51.40;99511.16;5055775;28;20024;-71
2022/10/11 04:58:30;;;;;;;4.75;2.13;;;;;;;18.40;51.52;99512.41;5055702;28;20040;-72
2022/10/11 05:00:55;;;;;;;8.80;2.53;;;;;;;18.36;51.37;99500.44;5056168;28;20058;-70
2022/10/11 05:03:21;;;;;;;6.93;2.55;;;;;;;18.35;51.38;99504.09;5039118;28;20064;-70
2022/10/11 05:05:46;;;;;;;6.13;2.60;;;;;;;18.39;51.57;99510.72;5039065;28;20086;-70
2022/10/11 05:08:12;;;;;;;9.38;2.40;;;;;;;18.42;51.51;99516.56;5055930;28;20040;-72
2022/10/11 05:10:37;;;;;;;3.88;2.42;;;;;;;18.42;51.36;99516.56;5072132;28;20077;-70
2022/10/11 05:13:03;;;;;;;7.57;2.70;;;;;;;18.46;51.37;99522.38;5055895;28;20036;-69
2022/10/11 05:15:29;;;;;;;5.50;2.50;;;;;;;18.41;51.20;99506.16;5039086;28;20024;-71
2022/10/11 05:17:54;;;;;;;7.07;2.58;;;;;;;18.44;51.34;99506.66;5055355;28;20102;-70
2022/10/11 05:20:20;;;;;;;5.15;2.70;;;;;;;18.53;51.19;99519.97;5072059;28;20029;-70
2022/10/11 05:22:45;;;;;;;6.35;2.90;;;;;;;18.54;50.94;99519.81;5055387;28;20108;-70
2022/10/11 05:25:11;;;;;;;5.35;2.47;;;;;;;18.57;51.00;99519.53;5055446;28;20471;-70
2022/10/11 05:27:36;;;;;;;6.05;2.53;;;;;;;18.60;50.96;99521.88;5055179;28;20035;-70
2022/10/11 05:30:03;;;;;;;11.52;2.85;;;;;;;18.57;50.82;99519.53;5071996;28;20059;-70
2022/10/11 05:32:29;;;;;;;5.07;2.42;;;;;;;18.68;50.70;99531.69;5054914;28;20049;-70
2022/10/11 05:34:54;;;;;;;5.15;2.70;;;;;;;18.74;50.50;99532.94;5072057;28;20129;-71
2022/10/11 05:37:20;;;;;;;4.78;2.40;;;;;;;18.79;50.49;99528.00;5072821;28;20056;-70
2022/10/11 05:39:45;;;;;;;9.57;2.60;;;;;;;18.87;50.61;99527.28;5055218;28;20039;-69
2022/10/11 05:42:11;;;;;;;8.60;2.60;;;;;;;18.94;50.19;99526.53;5038852;28;20588;-69
2022/10/11 05:44:36;;;;;;;7.15;2.60;;;;;;;19.03;50.10;99523.97;5054718;28;20044;-70
2022/10/11 05:47:02;;;;;;;8.90;2.67;;;;;;;19.10;49.81;99531.13;5072760;28;20488;-71
2022/10/11 05:49:28;;;;;;;4.65;2.38;;;;;;;19.22;49.70;99530.91;5038029;28;20068;-71
2022/10/11 05:51:53;;;;;;;6.72;3.00;;;;;;;19.29;49.53;99522.19;5071107;28;20064;-70
2022/10/11 05:54:19;;;;;;;7.35;2.72;;;;;;;19.48;49.34;99533.56;5054499;28;20039;-70
2022/10/11 05:56:44;;;;;;;6.20;2.30;;;;;;;19.59;48.96;99527.19;5054490;28;20033;-70
2022/10/11 05:59:10;;;;;;;4.25;2.08;;;;;;;19.77;48.24;99533.28;5071419;28;20452;-70
2022/10/11 06:01:35;;;;;;;6.65;2.40;;;;;;;19.96;48.04;99537.53;5071195;28;20028;-71
2022/10/11 06:04:01;;;;;;;6.18;2.67;;;;;;;20.23;47.27;99540.97;5038069;28;20456;-71
2022/10/11 06:06:26;;;;;;;6.22;2.42;;;;;;;20.45;46.63;99534.25;5054437;28;20032;-71
2022/10/11 06:08:52;;;;;;;5.28;2.47;;;;;;;20.72;46.04;99533.16;5071582;28;20043;-73
2022/10/11 06:11:26;;;;;;;12.38;2.20;;;;;;;21.23;44.73;99538.34;5037931;28;20039;-71
2022/10/11 06:13:53;;;;;;;9.68;3.00;;;;;;;21.63;43.69;99535.84;5055254;28;20407;-70
2022/10/11 06:16:18;;;;;;;8.82;2.47;;;;;;;22.02;42.28;99537.72;5038017;28;20024;-71
2022/10/11 06:18:44;;;;;;;4.13;1.83;;;;;;;22.68;41.09;99529.47;5037932;28;20405;-69
2022/10/11 06:21:09;;;;;;;7.80;2.40;;;;;;;22.84;40.45;99537.34;5054412;28;20537;-67
2022/10/11 06:23:35;;;;;;;5.07;1.90;;;;;;;23.05;40.02;99534.00;5072296;28;20036;-69
2022/10/11 06:26:05;;;;;;;6.30;2.65;;;;;;;23.21;39.68;99535.75;5071119;28;20082;-68
2022/10/11 06:28:31;;;;;;;9.50;3.20;;;;;;;23.29;39.41;99530.38;5054379;28;20555;-69
2022/10/11 06:30:56;;;;;;;10.30;2.30;;;;;;;23.46;38.91;99524.88;5055306;28;20027;-68
2022/10/11 06:33:22;;;;;;;5.03;2.20;;;;;;;23.67;38.70;99542.81;5070713;28;20067;-69
2022/10/11 06:35:48;;;;;;;6.32;2.00;;;;;;;24.00;37.88;99542.50;5054477;28;20115;-69
2022/10/11 06:38:13;;;;;;;8.25;2.10;;;;;;;24.48;38.78;99544.72;5055357;28;20092;-68
2022/10/11 06:40:39;;;;;;;8.00;2.25;;;;;;;24.64;39.05;99538.38;5071219;28;20033;-67
2022/10/11 06:43:04;;;;;;;7.75;2.13;;;;;;;24.69;38.80;99546.63;5052377;28;20514;-69
2022/10/11 06:45:30;;;;;;;5.18;1.90;;;;;;;24.72;38.93;99540.94;5070556;28;20113;-67
2022/10/11 06:47:55;;;;;;;7.72;1.98;;;;;;;24.92;38.34;99549.13;5070671;28;20483;-66
2022/10/11 06:50:21;;;;;;;9.95;1.92;;;;;;;25.49;36.97;99544.69;5071860;28;20028;-69
2022/10/11 06:52:47;;;;;;;7.63;2.03;;;;;;;25.62;36.85;99544.00;5071066;28;20036;-70
2022/10/11 06:55:12;;;;;;;7.85;1.80;;;;;;;26.71;34.71;99542.47;5054042;28;20407;-70
2022/10/11 06:57:38;;;;;;;9.65;1.90;;;;;;;27.77;33.16;99541.69;5071736;28;20103;-71
2022/10/11 07:00:04;;;;;;;9.00;1.70;;;;;;;28.17;31.68;99542.63;5071726;28;20054;-70
2022/10/11 07:02:30;;;;;;;5.53;1.85;;;;;;;28.30;31.19;99542.56;5037449;28;20031;-71
2022/10/11 07:04:55;;;;;;;9.90;1.80;;;;;;;28.32;30.81;99544.00;5074464;28;20028;-71
2022/10/11 07:07:21;;;;;;;6.97;2.00;;;;;;;28.46;30.59;99535.88;5074575;28;20029;-79
2022/10/11 07:09:46;;;;;;;15.07;2.15;;;;;;;28.18;31.21;99531.69;5041269;28;20115;-72
2022/10/11 07:12:12;;;;;;;6.95;2.05;;;;;;;27.31;31.38;99528.31;5074542;28;20044;-71
2022/10/11 07:14:37;;;;;;;7.43;1.90;;;;;;;26.67;32.14;99525.16;5057599;28;20036;-71
2022/10/11 07:17:03;;;;;;;8.27;2.03;;;;;;;26.33;33.00;99530.41;5074312;28;20035;-72
2022/10/11 07:19:28;;;;;;;8.57;2.00;;;;;;;25.91;33.43;99532.22;5057453;28;20021;-73
2022/10/11 07:21:54;;;;;;;7.03;2.78;;;;;;;25.56;34.56;99528.72;5057650;28;20535;-73
2022/10/11 07:24:19;;;;;;;6.68;2.08;;;;;;;25.31;35.25;99542.53;5057965;28;20028;-70
2022/10/11 07:26:45;;;;;;;7.03;2.05;;;;;;;25.22;35.79;99543.63;5075367;28;20463;-72
2022/10/11 07:29:10;;;;;;;5.22;2.28;;;;;;;25.48;35.32;99539.56;5075412;28;20028;-76
2022/10/11 07:31:37;;;;;;;5.32;2.17;;;;;;;25.40;35.84;99544.03;5057452;28;20170;-70
2022/10/11 07:34:03;;;;;;;9.77;2.20;;;;;;;25.29;35.88;99541.91;5057591;28;20060;-70
2022/10/11 07:36:28;;;;;;;5.38;2.17;;;;;;;25.18;35.31;99537.03;5073734;28;20033;-69
2022/10/11 07:38:54;;;;;;;10.15;2.50;;;;;;;24.79;35.77;99539.13;5074026;28;20468;-68
2022/10/11 07:41:19;;;;;;;7.90;2.50;;;;;;;24.58;36.10;99531.94;5075129;28;20032;-68
2022/10/11 07:43:48;;;;;;;10.23;2.53;;;;;;;24.33;36.46;99534.09;5057334;28;20032;-71
2022/10/11 07:46:14;;;;;;;8.45;2.47;;;;;;;24.14;36.85;99543.50;5057557;28;20520;-69
2022/10/11 07:48:40;;;;;;;7.22;2.10;;;;;;;23.84;37.44;99541.66;5073679;28;20032;-69
2022/10/11 07:51:12;;;;;;;5.97;2.55;;;;;;;23.71;37.50;99532.63;5057302;28;20035;-70
2022/10/11 07:53:42;;;;;;;6.18;2.10;;;;;;;23.51;38.09;99541.13;5057743;28;20036;-69
2022/10/11 07:56:08;;;;;;;6.00;2.50;;;;;;;23.40;38.34;99520.28;5057151;28;20024;-69
2022/10/11 07:58:34;;;;;;;9.35;2.60;;;;;;;23.39;39.19;99515.94;5040906;28;20185;-73
2022/10/11 08:00:59;;;;;;;12.68;2.30;;;;;;;23.86;39.66;99528.13;5056974;28;20032;-72
2022/10/11 08:03:25;;;;;;;3.95;1.85;;;;;;;24.24;38.95;99541.34;5073594;28;20033;-71
2022/10/11 08:05:51;;;;;;;11.73;2.42;;;;;;;24.95;37.31;99532.72;5073947;28;20056;-74
2022/10/11 08:08:18;;;;;;;8.18;1.95;;;;;;;25.13;36.63;99526.09;5073532;28;20460;-74
2022/10/11 08:10:43;;;;;;;7.22;1.88;;;;;;;25.20;36.48;99527.81;5056645;28;20028;-74
2022/10/11 08:13:09;;;;;;;8.48;2.35;;;;;;;25.20;36.81;99526.97;5073479;28;20044;-72
2022/10/11 08:15:34;;;;;;;9.18;2.08;;;;;;;25.27;36.24;99528.69;5038674;28;20021;-73
2022/10/11 08:18:00;;;;;;;8.30;2.03;;;;;;;25.32;35.73;99524.63;5056843;28;20115;-73
2022/10/11 08:20:25;;;;;;;7.60;2.40;;;;;;;25.28;36.31;99521.53;5073614;28;20025;-72
2022/10/11 08:22:51;;;;;;;7.25;2.10;;;;;;;25.31;35.62;99526.47;5074318;28;20050;-72
2022/10/11 08:25:16;;;;;;;7.60;2.33;;;;;;;25.48;35.58;99516.34;5073426;28;20078;-69
2022/10/11 08:27:42;;;;;;;12.38;2.88;;;;;;;25.71;34.39;99510.72;5074716;28;20040;-68
2022/10/11 08:30:08;;;;;;;8.05;2.25;;;;;;;25.72;34.12;99522.25;5056363;28;20085;-69
2022/10/11 08:32:33;;;;;;;9.27;2.42;;;;;;;25.74;34.19;99520.19;5055907;28;20084;-73
2022/10/11 08:34:59;;;;;;;12.27;2.65;;;;;;;25.82;35.70;99518.19;5056529;28;20063;-75
2022/10/11 08:37:24;;;;;;;8.70;2.28;;;;;;;25.89;35.89;99515.56;5072864;28;20036;-75
2022/10/11 08:39:50;;;;;;;7.85;2.25;;;;;;;26.10;35.31;99519.19;5072788;28;20040;-77
2022/10/11 08:42:28;;;;;;;6.75;2.20;;;;;;;26.32;34.74;99510.00;5039516;28;20077;-75
2022/10/11 08:44:54;;;;;;;;;;;;;;;26.50;34.39;99506.78;5040002;28;20563;-73
2022/10/11 08:47:24;;;;;;;9.00;1.85;;;;;;;26.46;33.95;99504.69;5072538;28;20355;-72
2022/10/11 08:49:50;;;;;;;9.57;2.15;;;;;;;26.46;33.57;99502.84;5072972;28;20031;-74
2022/10/11 08:52:21;;;;;;;10.15;2.45;;;;;;;26.53;33.57;99506.38;5055984;28;20079;-77
2022/10/11 08:54:49;;;;;;;6.63;2.60;;;;;;;26.49;33.49;99505.13;5039407;28;20032;-78
2022/10/11 08:57:18;;;;;;;8.07;2.28;;;;;;;26.44;33.19;99504.91;5072497;28;20066;-77
2022/10/11 09:00:11;;;;;;;10.50;2.45;;;;;;;26.36;33.30;99491.69;5055973;28;20032;-73
2022/10/11 09:03:00;;;;;;;5.82;2.13;;;;;;;26.34;33.11;99491.06;5071955;28;20515;-72
2022/10/11 09:05:29;;;;;;;4.97;2.33;;;;;;;26.27;33.71;99504.44;5059153;28;20037;-73
2022/10/11 09:08:14;;;;;;;8.98;2.17;;;;;;;26.25;33.69;99505.66;5039426;28;20032;-74
2022/10/11 09:11:01;;;;;;;5.15;2.33;;;;;;;26.17;33.54;99501.28;5055651;28;20085;-74
2022/10/11 09:13:40;;;;;;;;;;;;;;;26.20;33.76;99500.06;5058014;28;20040;-72
2022/10/11 09:16:26;;;;;;;8.38;2.10;;;;;;;26.12;33.53;99501.06;5072041;28;19912;-73
2022/10/11 09:19:10;;;;;;;4.75;2.22;;;;;;;25.97;33.64;99494.03;5050970;28;20094;-73
2022/10/11 09:22:07;;;;;;;7.00;2.00;;;;;;;25.91;33.86;99492.09;5051410;28;20240;-72
2022/10/11 09:24:35;;;;;;;;;;;;;;;25.98;34.11;99493.00;5018450;28;20045;-73
2022/10/11 09:27:09;;;;;;;7.15;2.00;;;;;;;25.99;33.77;99489.28;5051152;28;19916;-75
2022/10/11 09:29:38;;;;;;;6.43;2.10;;;;;;;25.98;33.82;99490.31;5035537;28;20087;-73
2022/10/11 09:32:14;;;;;;;6.22;2.13;;;;;;;26.02;33.68;99490.75;5017648;28;20040;-74
2022/10/11 09:34:40;;;;;;;9.00;2.25;;;;;;;26.11;33.65;99486.06;5019217;28;20110;-74
2022/10/11 09:37:21;;;;;;;6.95;2.42;;;;;;;26.27;33.05;99491.06;5001371;28;20464;-73
2022/10/11 09:39:51;;;;;;;5.53;2.25;;;;;;;26.44;32.82;99480.81;5019150;28;20024;-73
2022/10/11 09:42:17;;;;;;;5.25;2.10;;;;;;;26.45;33.04;99485.13;5001758;28;20048;-74
2022/10/11 09:44:47;;;;;;;7.47;2.25;;;;;;;26.43;33.02;99483.69;5017599;28;20033;-72
2022/10/11 09:47:14;;;;;;;9.48;2.30;;;;;;;26.52;32.90;99488.66;5017841;28;20037;-74
2022/10/11 09:50:11;;;;;;;8.30;2.17;;;;;;;26.66;32.41;99491.38;5034351;28;20040;-75
2022/10/11 09:52:37;;;;;;;14.20;2.63;;;;;;;26.96;32.56;99477.59;4953390;29;20047;-73
2022/10/11 09:55:02;;;;;;;6.05;2.40;;;;;;;27.16;32.45;99475.72;4957653;28;20550;-75
2022/10/11 09:57:29;;;;;;;5.50;2.03;;;;;;;27.14;32.02;99477.00;4991555;28;20093;-73
2022/10/11 10:00:42;;;;;;;4.28;2.30;;;;;;;27.14;31.99;99474.31;4975141;28;20042;-73
2022/10/11 10:03:08;;;;;;;9.73;2.40;;;;;;;27.10;31.82;99470.38;4972377;28;20134;-73
2022/10/11 10:05:35;;;;;;;4.90;2.40;;;;;;;26.95;31.81;99466.06;4939734;28;20101;-77
2022/10/11 10:08:01;;;;;;;7.45;2.40;;;;;;;26.91;31.70;99464.81;4924520;28;20117;-75
2022/10/11 10:10:44;;;;;;;9.60;2.50;;;;;;;26.74;31.89;99456.38;4971982;28;20454;-73
2022/10/11 10:13:45;;;;;;;7.32;2.60;;;;;;;26.59;32.22;99451.16;4957540;28;20074;-73
2022/10/11 10:16:19;;;;;;;9.32;2.20;;;;;;;26.44;32.27;99461.22;4926131;28;20047;-73
2022/10/11 10:18:53;;;;;;;7.30;2.38;;;;;;;26.30;32.60;99447.84;4971398;28;20085;-73
2022/10/11 10:21:49;;;;;;;7.35;2.22;;;;;;;26.17;33.11;99462.00;4955959;28;20038;-73
2022/10/11 10:24:19;;;;;;;10.90;2.70;;;;;;;26.02;33.02;99458.66;4957337;28;20050;-72
2022/10/11 10:27:15;;;;;;;8.20;2.58;;;;;;;25.94;33.20;99456.94;4923688;28;20046;-73
2022/10/11 10:29:41;;;;;;;11.70;2.25;;;;;;;25.89;33.40;99456.72;4969689;28;20382;-73
2022/10/11 10:32:20;;;;;;;8.75;2.65;;;;;;;25.80;33.59;99456.06;4977037;28;20046;-73
2022/10/11 10:35:01;;;;;;;6.20;2.80;;;;;;;25.71;33.81;99454.56;4977890;28;20041;-74
2022/10/11 10:37:52;;;;;;;9.05;2.63;;;;;;;25.72;33.69;99447.38;4977785;28;20036;-72
2022/10/11 10:40:22;;;;;;;10.50;2.70;;;;;;;25.72;33.53;99432.16;4999140;28;20475;-73
2022/10/11 10:42:48;;;;;;;8.60;2.88;;;;;;;25.73;34.00;99433.81;5004002;28;20099;-73
2022/10/11 10:45:15;;;;;;;8.63;2.50;;;;;;;25.75;33.69;99433.63;4987828;28;20037;-74
2022/10/11 10:48:06;;;;;;;10.48;2.58;;;;;;;25.76;33.47;99427.22;5003932;28;20108;-73
2022/10/11 10:50:47;;;;;;;9.32;2.38;;;;;;;25.87;33.46;99423.16;5020858;28;20447;-73
2022/10/11 10:53:26;;;;;;;7.53;2.60;;;;;;;26.07;33.40;99428.63;4988219;28;20045;-73
2022/10/11 10:56:15;;;;;;;8.32;2.50;;;;;;;26.20;33.08;99425.16;5020454;28;20025;-74
2022/10/11 10:59:01;;;;;;;6.43;2.50;;;;;;;26.25;32.73;99423.53;5022471;28;20052;-74
2022/10/11 11:01:32;;;;;;;4.20;2.23;;;;;;;26.34;32.52;99418.81;5036708;28;20048;-73
2022/10/11 11:04:14;;;;;;;10.10;2.15;;;;;;;26.45;32.45;99415.53;5004074;28;20041;-72
2022/10/11 11:07:03;;;;;;;6.22;2.40;;;;;;;26.56;32.17;99411.41;5032186;28;20029;-72
2022/10/11 11:09:35;;;;;;;8.25;2.33;;;;;;;26.71;31.92;99405.91;5046009;28;20039;-73
2022/10/11 11:12:25;;;;;;;6.95;2.63;;;;;;;26.80;31.64;99406.50;5078956;28;20099;-74
2022/10/11 11:15:06;;;;;;;6.90;2.40;;;;;;;26.74;31.93;99401.97;5078387;28;20032;-73
2022/10/11 11:17:42;;;;;;;6.50;2.40;;;;;;;26.79;31.75;99399.50;5045743;28;20025;-73
2022/10/11 11:20:35;;;;;;;6.03;2.17;;;;;;;26.81;31.58;99392.91;5061158;28;20058;-73
2022/10/11 11:23:16;;;;;;;6.00;2.30;;;;;;;26.92;31.60;99380.75;5077095;28;20032;-74
2022/10/11 11:26:13;;;;;;;4.65;2.20;;;;;;;26.96;31.36;99389.19;5060937;28;20056;-73
2022/10/11 11:28:54;;;;;;;6.10;2.30;;;;;;;26.94;31.20;99375.19;5078616;28;20029;-72
2022/10/11 11:31:30;;;;;;;9.63;2.85;;;;;;;26.87;31.65;99370.66;5078636;28;20031;-74
2022/10/11 11:34:26;;;;;;;7.90;3.10;;;;;;;26.90;31.37;99374.78;5077027;28;20074;-74
2022/10/11 11:37:14;;;;;;;5.60;2.70;;;;;;;26.78;31.82;99371.91;5076990;28;20036;-73
2022/10/11 11:39:42;;;;;;;10.77;3.00;;;;;;;26.77;31.82;99377.47;5063618;28;20035;-72
2022/10/11 11:42:25;;;;;;;8.98;3.05;;;;;;;26.73;31.83;99373.56;5060014;28;20513;-73
2022/10/11 11:44:51;;;;;;;7.32;2.97;;;;;;;26.67;31.83;99378.69;5045747;28;20039;-74
2022/10/11 11:47:30;;;;;;;8.48;2.75;;;;;;;26.56;31.99;99373.13;5043739;28;20032;-74
2022/10/11 11:50:25;;;;;;;6.70;2.40;;;;;;;26.44;31.51;99362.19;5058815;28;20032;-73